sensor_id;sensor_type;location;lat;lon;timestamp;pressure;altitude;pressure_sealevel;temperature;humidity
8894;BME280;4483;48.622;9.230;2023-06-24T00:02:26;98740.44;;;16.23;87.27
8894;BME280;4483;48.622;9.230;2023-06-24T00:04:52;98743.09;;;16.22;87.19
8894;BME280;4483;48.622;9.230;2023-06-24T00:07:19;98741.34;;;16.22;87.19
8894;BME280;4483;48.622;9.230;2023-06-24T00:09:47;98747.47;;;16.21;87.42
8894;BME280;4483;48.622;9.230;2023-06-24T00:12:15;98736.25;;;16.21;87.68
8894;BME280;4483;48.622;9.230;2023-06-24T00:14:44;98744.94;;;16.20;87.81
8894;BME280;4483;48.622;9.230;2023-06-24T00:17:11;98747.78;;;16.15;87.68
8894;BME280;4483;48.622;9.230;2023-06-24T00:19:38;98744.63;;;16.08;87.26
8894;BME280;4483;48.622;9.230;2023-06-24T00:22:04;98750.88;;;16.04;87.89
8894;BME280;4483;48.622;9.230;2023-06-24T00:24:31;98762.56;;;15.96;88.22
8894;BME280;4483;48.622;9.230;2023-06-24T00:26:58;98758.50;;;15.90;88.58
8894;BME280;4483;48.622;9.230;2023-06-24T00:29:26;98756.19;;;15.84;88.10
8894;BME280;4483;48.622;9.230;2023-06-24T00:31:52;98755.47;;;15.81;88.99
8894;BME280;4483;48.622;9.230;2023-06-24T00:34:19;98752.25;;;15.76;88.72
8894;BME280;4483;48.622;9.230;2023-06-24T00:36:46;98756.00;;;15.70;88.92
8894;BME280;4483;48.622;9.230;2023-06-24T00:39:13;98755.44;;;15.64;88.80
8894;BME280;4483;48.622;9.230;2023-06-24T00:41:40;98758.25;;;15.59;89.64
8894;BME280;4483;48.622;9.230;2023-06-24T00:44:06;98757.47;;;15.57;89.77
8894;BME280;4483;48.622;9.230;2023-06-24T00:46:35;98751.41;;;15.57;89.93
8894;BME280;4483;48.622;9.230;2023-06-24T00:49:02;98748.97;;;15.54;89.99
8894;BME280;4483;48.622;9.230;2023-06-24T00:51:28;98749.91;;;15.53;90.45
8894;BME280;4483;48.622;9.230;2023-06-24T00:53:56;98749.91;;;15.53;90.29
8894;BME280;4483;48.622;9.230;2023-06-24T00:56:27;98746.47;;;15.52;89.95
8894;BME280;4483;48.622;9.230;2023-06-24T00:58:54;98747.44;;;15.50;90.22
8894;BME280;4483;48.622;9.230;2023-06-24T01:01:24;98750.94;;;15.49;90.22
8894;BME280;4483;48.622;9.230;2023-06-24T01:03:52;98751.91;;;15.46;90.41
8894;BME280;4483;48.622;9.230;2023-06-24T01:06:19;98753.03;;;15.41;90.13
8894;BME280;4483;48.622;9.230;2023-06-24T01:08:45;98754.97;;;15.36;90.07
8894;BME280;4483;48.622;9.230;2023-06-24T01:11:16;98751.75;;;15.31;91.10
8894;BME280;4483;48.622;9.230;2023-06-24T01:13:42;98756.19;;;15.29;91.08
8894;BME280;4483;48.622;9.230;2023-06-24T01:16:14;98747.59;;;15.27;91.53
8894;BME280;4483;48.622;9.230;2023-06-24T01:18:49;98744.38;;;15.22;91.28
8894;BME280;4483;48.622;9.230;2023-06-24T01:21:25;98746.97;;;15.22;91.87
8894;BME280;4483;48.622;9.230;2023-06-24T01:24:19;98747.88;;;15.21;92.21
8894;BME280;4483;48.622;9.230;2023-06-24T01:27:14;98742.75;;;15.19;91.94
8894;BME280;4483;48.622;9.230;2023-06-24T01:30:11;98736.09;;;15.13;91.76
8894;BME280;4483;48.622;9.230;2023-06-24T01:32:43;98743.31;;;15.07;91.70
8894;BME280;4483;48.622;9.230;2023-06-24T01:35:14;98739.25;;;15.01;92.73
8894;BME280;4483;48.622;9.230;2023-06-24T01:37:44;98748.88;;;14.98;92.63
8894;BME280;4483;48.622;9.230;2023-06-24T01:40:17;98752.47;;;14.95;92.39
8894;BME280;4483;48.622;9.230;2023-06-24T01:42:47;98748.31;;;14.91;93.16
8894;BME280;4483;48.622;9.230;2023-06-24T01:45:19;98753.66;;;14.88;92.09
8894;BME280;4483;48.622;9.230;2023-06-24T01:47:48;98747.78;;;14.83;92.52
8894;BME280;4483;48.622;9.230;2023-06-24T01:50:19;98743.69;;;14.79;92.86
8894;BME280;4483;48.622;9.230;2023-06-24T01:52:50;98736.84;;;14.77;93.47
8894;BME280;4483;48.622;9.230;2023-06-24T01:55:20;98732.91;;;14.68;93.15
8894;BME280;4483;48.622;9.230;2023-06-24T01:57:49;98734.84;;;14.63;93.07
8894;BME280;4483;48.622;9.230;2023-06-24T02:00:17;98736.69;;;14.61;94.26
8894;BME280;4483;48.622;9.230;2023-06-24T02:02:46;98743.63;;;14.61;93.46
8894;BME280;4483;48.622;9.230;2023-06-24T02:05:13;98731.53;;;14.60;94.02
8894;BME280;4483;48.622;9.230;2023-06-24T02:07:42;98739.28;;;14.61;94.18
8894;BME280;4483;48.622;9.230;2023-06-24T02:10:12;98740.16;;;14.60;94.35
8894;BME280;4483;48.622;9.230;2023-06-24T02:12:39;98740.09;;;14.62;94.91
8894;BME280;4483;48.622;9.230;2023-06-24T02:15:07;98738.34;;;14.62;94.60
8894;BME280;4483;48.622;9.230;2023-06-24T02:17:36;98732.47;;;14.59;93.91
8894;BME280;4483;48.622;9.230;2023-06-24T02:20:07;98729.25;;;14.52;94.31
8894;BME280;4483;48.622;9.230;2023-06-24T02:22:36;98735.56;;;14.47;94.50
8894;BME280;4483;48.622;9.230;2023-06-24T02:25:06;98724.44;;;14.45;94.52
8894;BME280;4483;48.622;9.230;2023-06-24T02:27:33;98722.00;;;14.40;94.17
8894;BME280;4483;48.622;9.230;2023-06-24T02:30:03;98722.19;;;14.36;95.15
8894;BME280;4483;48.622;9.230;2023-06-24T02:32:29;98737.81;;;14.34;95.50
8894;BME280;4483;48.622;9.230;2023-06-24T02:34:57;98730.97;;;14.33;96.03
8894;BME280;4483;48.622;9.230;2023-06-24T02:37:25;98728.50;;;14.30;95.94
8894;BME280;4483;48.622;9.230;2023-06-24T02:39:52;98732.94;;;14.27;95.84
8894;BME280;4483;48.622;9.230;2023-06-24T02:42:19;98736.50;;;14.24;96.27
8894;BME280;4483;48.622;9.230;2023-06-24T02:44:45;98716.84;;;14.19;95.78
8894;BME280;4483;48.622;9.230;2023-06-24T02:47:14;98729.59;;;14.23;96.17
8894;BME280;4483;48.622;9.230;2023-06-24T02:49:42;98728.81;;;14.21;97.01
8894;BME280;4483;48.622;9.230;2023-06-24T02:52:11;98728.97;;;14.18;96.95
8894;BME280;4483;48.622;9.230;2023-06-24T02:54:40;98728.97;;;14.18;96.20
8894;BME280;4483;48.622;9.230;2023-06-24T02:57:08;98727.22;;;14.19;97.19
8894;BME280;4483;48.622;9.230;2023-06-24T02:59:35;98722.09;;;14.17;96.47
8894;BME280;4483;48.622;9.230;2023-06-24T03:02:03;98727.28;;;14.17;96.64
8894;BME280;4483;48.622;9.230;2023-06-24T03:04:30;98723.78;;;14.18;96.90
8894;BME280;4483;48.622;9.230;2023-06-24T03:06:57;98732.66;;;14.12;96.69
8894;BME280;4483;48.622;9.230;2023-06-24T03:09:26;98724.16;;;14.09;97.34
8894;BME280;4483;48.622;9.230;2023-06-24T03:11:54;98723.50;;;14.04;97.72
8894;BME280;4483;48.622;9.230;2023-06-24T03:14:21;98730.50;;;14.02;97.67
8894;BME280;4483;48.622;9.230;2023-06-24T03:16:47;98737.41;;;14.01;97.84
8894;BME280;4483;48.622;9.230;2023-06-24T03:19:14;98739.16;;;14.01;98.00
8894;BME280;4483;48.622;9.230;2023-06-24T03:21:40;98744.41;;;13.99;97.35
8894;BME280;4483;48.622;9.230;2023-06-24T03:24:07;98750.50;;;13.98;98.35
8894;BME280;4483;48.622;9.230;2023-06-24T03:26:35;98750.44;;;14.00;98.40
8894;BME280;4483;48.622;9.230;2023-06-24T03:29:03;98752.25;;;13.98;98.14
8894;BME280;4483;48.622;9.230;2023-06-24T03:31:30;98759.94;;;13.99;97.62
8894;BME280;4483;48.622;9.230;2023-06-24T03:33:56;98766.75;;;14.02;98.48
8894;BME280;4483;48.622;9.230;2023-06-24T03:36:23;98772.72;;;14.04;97.61
8894;BME280;4483;48.622;9.230;2023-06-24T03:38:50;98771.03;;;14.03;98.28
8894;BME280;4483;48.622;9.230;2023-06-24T03:41:17;98773.69;;;14.01;97.99
8894;BME280;4483;48.622;9.230;2023-06-24T03:43:44;98767.84;;;13.96;98.21
8894;BME280;4483;48.622;9.230;2023-06-24T03:46:12;98783.47;;;13.95;97.85
8894;BME280;4483;48.622;9.230;2023-06-24T03:48:39;98774.97;;;13.91;98.34
8894;BME280;4483;48.622;9.230;2023-06-24T03:51:05;98778.50;;;13.89;98.50
8894;BME280;4483;48.622;9.230;2023-06-24T03:53:32;98776.78;;;13.89;97.91
8894;BME280;4483;48.622;9.230;2023-06-24T03:55:59;98777.00;;;13.83;99.02
8894;BME280;4483;48.622;9.230;2023-06-24T03:58:26;98788.16;;;13.85;98.75
8894;BME280;4483;48.622;9.230;2023-06-24T04:00:53;98783.56;;;13.92;99.88
8894;BME280;4483;48.622;9.230;2023-06-24T04:03:23;98787.56;;;14.00;99.48
8894;BME280;4483;48.622;9.230;2023-06-24T04:05:53;98794.19;;;14.07;99.15
8894;BME280;4483;48.622;9.230;2023-06-24T04:08:19;98793.88;;;14.15;98.90
8894;BME280;4483;48.622;9.230;2023-06-24T04:10:46;98803.97;;;14.21;99.10
8894;BME280;4483;48.622;9.230;2023-06-24T04:13:13;98800.22;;;14.30;99.27
8894;BME280;4483;48.622;9.230;2023-06-24T04:15:39;98802.63;;;14.34;98.22
8894;BME280;4483;48.622;9.230;2023-06-24T04:18:06;98808.53;;;14.38;98.45
8894;BME280;4483;48.622;9.230;2023-06-24T04:20:34;98812.63;;;14.43;99.22
8894;BME280;4483;48.622;9.230;2023-06-24T04:23:01;98812.53;;;14.46;98.28
8894;BME280;4483;48.622;9.230;2023-06-24T04:25:27;98812.38;;;14.49;98.13
8894;BME280;4483;48.622;9.230;2023-06-24T04:27:54;98809.78;;;14.49;97.68
8894;BME280;4483;48.622;9.230;2023-06-24T04:30:21;98811.50;;;14.50;98.55
8894;BME280;4483;48.622;9.230;2023-06-24T04:32:47;98813.03;;;14.54;98.63
8894;BME280;4483;48.622;9.230;2023-06-24T04:35:14;98809.34;;;14.60;98.45
8894;BME280;4483;48.622;9.230;2023-06-24T04:37:42;98807.47;;;14.63;98.56
8894;BME280;4483;48.622;9.230;2023-06-24T04:40:09;98808.91;;;14.70;98.12
8894;BME280;4483;48.622;9.230;2023-06-24T04:42:36;98821.38;;;14.82;97.84
8894;BME280;4483;48.622;9.230;2023-06-24T04:45:03;98811.38;;;14.93;98.60
8894;BME280;4483;48.622;9.230;2023-06-24T04:47:31;98809.94;;;15.06;97.67
8894;BME280;4483;48.622;9.230;2023-06-24T04:49:57;98809.41;;;15.19;97.23
8894;BME280;4483;48.622;9.230;2023-06-24T04:52:24;98812.28;;;15.31;97.39
8894;BME280;4483;48.622;9.230;2023-06-24T04:54:52;98815.28;;;15.42;97.02
8894;BME280;4483;48.622;9.230;2023-06-24T04:57:27;98816.94;;;15.45;95.99
8894;BME280;4483;48.622;9.230;2023-06-24T04:59:54;98813.56;;;15.43;95.55
8894;BME280;4483;48.622;9.230;2023-06-24T05:02:21;98818.75;;;15.43;96.05
8894;BME280;4483;48.622;9.230;2023-06-24T05:04:48;98804.72;;;15.47;96.00
8894;BME280;4483;48.622;9.230;2023-06-24T05:07:14;98810.13;;;15.61;96.00
8894;BME280;4483;48.622;9.230;2023-06-24T05:09:41;98818.13;;;15.75;95.75
8894;BME280;4483;48.622;9.230;2023-06-24T05:12:10;98810.47;;;15.90;95.80
8894;BME280;4483;48.622;9.230;2023-06-24T05:14:37;98816.72;;;16.05;95.05
8894;BME280;4483;48.622;9.230;2023-06-24T05:17:04;98818.50;;;16.22;94.68
8894;BME280;4483;48.622;9.230;2023-06-24T05:19:30;98812.66;;;16.35;94.13
8894;BME280;4483;48.622;9.230;2023-06-24T05:21:57;98828.22;;;16.54;93.60
8894;BME280;4483;48.622;9.230;2023-06-24T05:24:24;98823.28;;;16.66;93.20
8894;BME280;4483;48.622;9.230;2023-06-24T05:26:51;98821.69;;;16.81;92.55
8894;BME280;4483;48.622;9.230;2023-06-24T05:29:19;98817.69;;;16.91;91.74
8894;BME280;4483;48.622;9.230;2023-06-24T05:31:45;98816.22;;;17.02;91.62
8894;BME280;4483;48.622;9.230;2023-06-24T05:34:12;98811.06;;;17.18;91.06
8894;BME280;4483;48.622;9.230;2023-06-24T05:36:39;98821.44;;;17.35;90.66
8894;BME280;4483;48.622;9.230;2023-06-24T05:39:06;98826.56;;;17.54;90.13
8894;BME280;4483;48.622;9.230;2023-06-24T05:41:33;98822.13;;;17.71;89.62
8894;BME280;4483;48.622;9.230;2023-06-24T05:44:04;98812.41;;;17.90;88.29
8894;BME280;4483;48.622;9.230;2023-06-24T05:46:33;98809.53;;;18.11;88.08
8894;BME280;4483;48.622;9.230;2023-06-24T05:48:59;98812.28;;;18.39;87.72
8894;BME280;4483;48.622;9.230;2023-06-24T05:51:26;98815.69;;;18.70;86.38
8894;BME280;4483;48.622;9.230;2023-06-24T05:53:53;98810.34;;;19.01;85.48
8894;BME280;4483;48.622;9.230;2023-06-24T05:56:19;98813.81;;;19.30;84.12
8894;BME280;4483;48.622;9.230;2023-06-24T05:58:46;98807.16;;;19.54;82.65
8894;BME280;4483;48.622;9.230;2023-06-24T06:01:13;98816.94;;;19.79;81.82
8894;BME280;4483;48.622;9.230;2023-06-24T06:03:41;98817.06;;;20.04;80.96
8894;BME280;4483;48.622;9.230;2023-06-24T06:06:08;98818.91;;;20.30;79.62
8894;BME280;4483;48.622;9.230;2023-06-24T06:08:34;98812.38;;;20.50;77.57
8894;BME280;4483;48.622;9.230;2023-06-24T06:11:01;98807.06;;;20.64;77.33
8894;BME280;4483;48.622;9.230;2023-06-24T06:13:28;98811.72;;;20.73;76.48
8894;BME280;4483;48.622;9.230;2023-06-24T06:15:55;98804.41;;;20.90;76.07
8894;BME280;4483;48.622;9.230;2023-06-24T06:18:21;98799.94;;;21.18;75.37
8894;BME280;4483;48.622;9.230;2023-06-24T06:20:49;98798.66;;;21.48;74.73
8894;BME280;4483;48.622;9.230;2023-06-24T06:23:16;98795.06;;;21.74;73.21
8894;BME280;4483;48.622;9.230;2023-06-24T06:25:43;98796.47;;;22.04;72.51
8894;BME280;4483;48.622;9.230;2023-06-24T06:28:10;98789.47;;;22.28;71.60
8894;BME280;4483;48.622;9.230;2023-06-24T06:30:37;98788.72;;;22.49;70.54
8894;BME280;4483;48.622;9.230;2023-06-24T06:33:03;98780.63;;;22.76;69.58
8894;BME280;4483;48.622;9.230;2023-06-24T06:35:30;98782.81;;;22.93;69.00
8894;BME280;4483;48.622;9.230;2023-06-24T06:37:58;98783.22;;;23.11;68.71
8894;BME280;4483;48.622;9.230;2023-06-24T06:40:25;98781.13;;;23.38;67.43
8894;BME280;4483;48.622;9.230;2023-06-24T06:42:53;98793.91;;;23.64;65.88
8894;BME280;4483;48.622;9.230;2023-06-24T06:45:20;98783.13;;;23.89;64.37
8894;BME280;4483;48.622;9.230;2023-06-24T06:47:47;98789.44;;;24.09;63.83
8894;BME280;4483;48.622;9.230;2023-06-24T06:50:14;98781.97;;;24.25;63.01
8894;BME280;4483;48.622;9.230;2023-06-24T06:52:40;98783.81;;;24.45;62.54
8894;BME280;4483;48.622;9.230;2023-06-24T06:55:09;98776.31;;;24.72;61.36
8894;BME280;4483;48.622;9.230;2023-06-24T06:57:35;98777.59;;;24.99;59.79
8894;BME280;4483;48.622;9.230;2023-06-24T07:00:03;98782.44;;;25.14;58.64
8894;BME280;4483;48.622;9.230;2023-06-24T07:02:30;98773.31;;;25.28;58.13
8894;BME280;4483;48.622;9.230;2023-06-24T07:04:56;98773.38;;;25.37;57.30
8894;BME280;4483;48.622;9.230;2023-06-24T07:07:24;98779.53;;;25.38;55.98
8894;BME280;4483;48.622;9.230;2023-06-24T07:09:51;98777.81;;;25.37;55.12
8894;BME280;4483;48.622;9.230;2023-06-24T07:12:19;98777.75;;;25.48;54.85
8894;BME280;4483;48.622;9.230;2023-06-24T07:14:46;98782.44;;;25.74;54.22
8894;BME280;4483;48.622;9.230;2023-06-24T07:17:13;98771.84;;;26.05;52.74
8894;BME280;4483;48.622;9.230;2023-06-24T07:19:39;98772.56;;;26.16;50.59
8894;BME280;4483;48.622;9.230;2023-06-24T07:22:06;98777.31;;;26.32;50.42
8894;BME280;4483;48.622;9.230;2023-06-24T07:24:33;98771.63;;;26.36;49.14
8894;BME280;4483;48.622;9.230;2023-06-24T07:26:59;98773.16;;;26.39;49.14
8894;BME280;4483;48.622;9.230;2023-06-24T07:29:27;98771.34;;;26.58;48.92
8894;BME280;4483;48.622;9.230;2023-06-24T07:31:54;98768.16;;;26.83;48.23
8894;BME280;4483;48.622;9.230;2023-06-24T07:34:20;98772.94;;;27.17;47.81
8894;BME280;4483;48.622;9.230;2023-06-24T07:36:47;98771.47;;;27.51;47.06
8894;BME280;4483;48.622;9.230;2023-06-24T07:39:16;98763.94;;;27.83;46.54
8894;BME280;4483;48.622;9.230;2023-06-24T07:41:42;98764.09;;;28.09;45.59
8894;BME280;4483;48.622;9.230;2023-06-24T07:44:09;98752.81;;;28.24;44.96
8894;BME280;4483;48.622;9.230;2023-06-24T07:46:37;98771.25;;;28.43;44.62
8894;BME280;4483;48.622;9.230;2023-06-24T07:49:03;98763.25;;;28.53;43.71
8894;BME280;4483;48.622;9.230;2023-06-24T07:51:30;98761.28;;;28.55;43.56
8894;BME280;4483;48.622;9.230;2023-06-24T07:53:57;98753.09;;;28.66;42.95
8894;BME280;4483;48.622;9.230;2023-06-24T07:56:23;98759.56;;;28.89;42.88
8894;BME280;4483;48.622;9.230;2023-06-24T07:58:50;98753.97;;;29.18;41.99
8894;BME280;4483;48.622;9.230;2023-06-24T08:01:17;98757.59;;;29.42;41.38
8894;BME280;4483;48.622;9.230;2023-06-24T08:03:45;98748.34;;;29.46;40.88
8894;BME280;4483;48.622;9.230;2023-06-24T08:06:11;98750.38;;;29.60;40.82
8894;BME280;4483;48.622;9.230;2023-06-24T08:08:38;98752.16;;;29.78;39.94
8894;BME280;4483;48.622;9.230;2023-06-24T08:11:05;98754.94;;;29.76;38.79
8894;BME280;4483;48.622;9.230;2023-06-24T08:13:31;98750.81;;;29.74;38.54
8894;BME280;4483;48.622;9.230;2023-06-24T08:15:58;98748.31;;;29.72;37.62
8894;BME280;4483;48.622;9.230;2023-06-24T08:18:24;98743.03;;;29.88;37.40
8894;BME280;4483;48.622;9.230;2023-06-24T08:20:52;98739.78;;;30.10;37.27
8894;BME280;4483;48.622;9.230;2023-06-24T08:23:19;98747.09;;;30.16;36.82
8894;BME280;4483;48.622;9.230;2023-06-24T08:25:46;98736.81;;;30.21;36.52
8894;BME280;4483;48.622;9.230;2023-06-24T08:28:31;98738.81;;;30.27;36.13
8894;BME280;4483;48.622;9.230;2023-06-24T08:30:57;98740.50;;;30.28;35.54
8894;BME280;4483;48.622;9.230;2023-06-24T08:33:24;98740.16;;;30.31;35.38
8894;BME280;4483;48.622;9.230;2023-06-24T08:36:05;98735.38;;;30.59;35.48
8894;BME280;4483;48.622;9.230;2023-06-24T08:38:31;98725.56;;;30.92;35.04
8894;BME280;4483;48.622;9.230;2023-06-24T08:40:58;98733.50;;;31.24;35.35
8894;BME280;4483;48.622;9.230;2023-06-24T08:43:25;98735.75;;;31.51;34.54
8894;BME280;4483;48.622;9.230;2023-06-24T08:45:52;98735.22;;;31.63;33.92
8894;BME280;4483;48.622;9.230;2023-06-24T08:48:39;98728.75;;;31.50;33.77
8894;BME280;4483;48.622;9.230;2023-06-24T08:51:11;98718.66;;;31.37;33.40
8894;BME280;4483;48.622;9.230;2023-06-24T08:53:42;98717.88;;;31.13;34.00
8894;BME280;4483;48.622;9.230;2023-06-24T08:56:09;98714.91;;;31.08;33.75
8894;BME280;4483;48.622;9.230;2023-06-24T08:58:36;98717.56;;;31.08;33.42
8894;BME280;4483;48.622;9.230;2023-06-24T09:01:03;98725.69;;;31.06;33.72
8894;BME280;4483;48.622;9.230;2023-06-24T09:03:30;98727.19;;;31.09;33.94
8894;BME280;4483;48.622;9.230;2023-06-24T09:05:57;98727.13;;;31.33;34.05
8894;BME280;4483;48.622;9.230;2023-06-24T09:08:25;98725.00;;;31.75;33.05
8894;BME280;4483;48.622;9.230;2023-06-24T09:10:53;98717.38;;;32.25;32.78
8894;BME280;4483;48.622;9.230;2023-06-24T09:13:20;98707.63;;;32.63;32.78
8894;BME280;4483;48.622;9.230;2023-06-24T09:15:48;98706.81;;;33.00;32.06
8894;BME280;4483;48.622;9.230;2023-06-24T09:18:15;98708.00;;;33.26;31.42
8894;BME280;4483;48.622;9.230;2023-06-24T09:20:42;98706.44;;;33.32;30.49
8894;BME280;4483;48.622;9.230;2023-06-24T09:23:11;98696.78;;;33.31;30.55
8894;BME280;4483;48.622;9.230;2023-06-24T09:25:39;98705.50;;;33.39;30.13
8894;BME280;4483;48.622;9.230;2023-06-24T09:28:06;98700.28;;;33.46;29.94
8894;BME280;4483;48.622;9.230;2023-06-24T09:30:32;98695.84;;;33.38;28.90
8894;BME280;4483;48.622;9.230;2023-06-24T09:32:59;98692.91;;;33.19;28.74
8894;BME280;4483;48.622;9.230;2023-06-24T09:35:26;98692.81;;;32.98;29.37
8894;BME280;4483;48.622;9.230;2023-06-24T09:37:53;98687.09;;;33.15;29.27
8894;BME280;4483;48.622;9.230;2023-06-24T09:40:20;98690.69;;;33.37;29.08
8894;BME280;4483;48.622;9.230;2023-06-24T09:42:53;98687.06;;;33.44;29.18
8894;BME280;4483;48.622;9.230;2023-06-24T09:45:22;98685.06;;;33.61;28.85
8894;BME280;4483;48.622;9.230;2023-06-24T09:47:48;98678.84;;;33.90;28.82
8894;BME280;4483;48.622;9.230;2023-06-24T09:50:15;98677.88;;;34.12;28.22
8894;BME280;4483;48.622;9.230;2023-06-24T09:52:43;98669.88;;;34.39;28.40
8894;BME280;4483;48.622;9.230;2023-06-24T09:55:12;98668.56;;;34.08;26.60
8894;BME280;4483;48.622;9.230;2023-06-24T09:57:40;98670.97;;;33.67;26.92
8894;BME280;4483;48.622;9.230;2023-06-24T10:00:10;98669.50;;;33.50;27.99
8894;BME280;4483;48.622;9.230;2023-06-24T10:02:38;98662.41;;;33.28;27.49
8894;BME280;4483;48.622;9.230;2023-06-24T10:05:05;98661.66;;;33.34;27.61
8894;BME280;4483;48.622;9.230;2023-06-24T10:07:32;98656.88;;;33.44;27.71
8894;BME280;4483;48.622;9.230;2023-06-24T10:10:02;98658.25;;;33.40;27.34
8894;BME280;4483;48.622;9.230;2023-06-24T10:12:29;98655.44;;;33.12;26.88
8894;BME280;4483;48.622;9.230;2023-06-24T10:14:57;98656.78;;;33.23;26.82
8894;BME280;4483;48.622;9.230;2023-06-24T10:17:25;98655.69;;;33.32;27.25
8894;BME280;4483;48.622;9.230;2023-06-24T10:19:52;98634.88;;;33.42;27.08
8894;BME280;4483;48.622;9.230;2023-06-24T10:22:22;98650.03;;;33.71;27.27
8894;BME280;4483;48.622;9.230;2023-06-24T10:24:51;98635.78;;;33.85;26.57
8894;BME280;4483;48.622;9.230;2023-06-24T10:27:20;98635.03;;;33.91;26.53
8894;BME280;4483;48.622;9.230;2023-06-24T10:29:49;98642.66;;;33.73;26.42
8894;BME280;4483;48.622;9.230;2023-06-24T10:32:17;98636.41;;;33.66;26.31
8894;BME280;4483;48.622;9.230;2023-06-24T10:34:46;98628.84;;;33.69;26.71
8894;BME280;4483;48.622;9.230;2023-06-24T10:37:17;98625.97;;;33.71;26.26
8894;BME280;4483;48.622;9.230;2023-06-24T10:39:50;98630.13;;;33.94;26.80
8894;BME280;4483;48.622;9.230;2023-06-24T10:42:25;98626.44;;;34.37;26.29
8894;BME280;4483;48.622;9.230;2023-06-24T10:44:53;98618.94;;;34.47;26.03
8894;BME280;4483;48.622;9.230;2023-06-24T10:47:21;98614.69;;;34.60;25.82
8894;BME280;4483;48.622;9.230;2023-06-24T10:49:50;98620.13;;;34.73;25.80
8894;BME280;4483;48.622;9.230;2023-06-24T10:52:18;98611.03;;;34.95;25.83
8894;BME280;4483;48.622;9.230;2023-06-24T10:54:45;98608.00;;;35.11;25.33
8894;BME280;4483;48.622;9.230;2023-06-24T10:57:12;98605.53;;;35.09;25.35
8894;BME280;4483;48.622;9.230;2023-06-24T10:59:39;98603.81;;;35.36;24.60
8894;BME280;4483;48.622;9.230;2023-06-24T11:02:07;98603.53;;;35.65;24.28
8894;BME280;4483;48.622;9.230;2023-06-24T11:04:42;98591.97;;;35.58;23.44
8894;BME280;4483;48.622;9.230;2023-06-24T11:07:10;98594.25;;;35.14;23.77
8894;BME280;4483;48.622;9.230;2023-06-24T11:09:37;98597.63;;;34.61;24.37
8894;BME280;4483;48.622;9.230;2023-06-24T11:12:05;98595.72;;;34.55;25.10
8894;BME280;4483;48.622;9.230;2023-06-24T11:14:33;98598.81;;;34.58;24.80
8894;BME280;4483;48.622;9.230;2023-06-24T11:17:00;98592.69;;;34.64;25.10
8894;BME280;4483;48.622;9.230;2023-06-24T11:19:29;98585.28;;;34.94;24.65
8894;BME280;4483;48.622;9.230;2023-06-24T11:21:58;98587.31;;;35.32;24.58
8894;BME280;4483;48.622;9.230;2023-06-24T11:24:27;98578.97;;;35.68;24.34
8894;BME280;4483;48.622;9.230;2023-06-24T11:26:53;98565.81;;;35.80;24.04
8894;BME280;4483;48.622;9.230;2023-06-24T11:29:20;98568.91;;;35.83;23.92
8894;BME280;4483;48.622;9.230;2023-06-24T11:31:47;98569.91;;;35.82;24.07
8894;BME280;4483;48.622;9.230;2023-06-24T11:34:14;98575.66;;;35.66;24.14
8894;BME280;4483;48.622;9.230;2023-06-24T11:36:41;98570.31;;;35.60;23.02
8894;BME280;4483;48.622;9.230;2023-06-24T11:39:07;98570.06;;;35.01;23.14
8894;BME280;4483;48.622;9.230;2023-06-24T11:41:36;98571.19;;;34.85;23.12
8894;BME280;4483;48.622;9.230;2023-06-24T11:44:05;98562.81;;;34.95;23.40
8894;BME280;4483;48.622;9.230;2023-06-24T11:46:32;98563.50;;;35.10;23.26
8894;BME280;4483;48.622;9.230;2023-06-24T11:49:03;98551.59;;;35.19;22.67
8894;BME280;4483;48.622;9.230;2023-06-24T11:51:30;98548.91;;;35.19;22.26
8894;BME280;4483;48.622;9.230;2023-06-24T11:53:59;98551.03;;;35.30;22.35
8894;BME280;4483;48.622;9.230;2023-06-24T11:56:35;98548.34;;;35.30;22.56
8894;BME280;4483;48.622;9.230;2023-06-24T11:59:03;98540.06;;;35.18;22.39
8894;BME280;4483;48.622;9.230;2023-06-24T12:01:31;98541.03;;;35.04;22.49
8894;BME280;4483;48.622;9.230;2023-06-24T12:03:59;98540.38;;;34.96;22.39
8894;BME280;4483;48.622;9.230;2023-06-24T12:06:26;98520.81;;;34.95;22.01
8894;BME280;4483;48.622;9.230;2023-06-24T12:08:53;98521.22;;;34.99;22.24
8894;BME280;4483;48.622;9.230;2023-06-24T12:11:19;98518.41;;;35.13;22.55
8894;BME280;4483;48.622;9.230;2023-06-24T12:13:48;98521.13;;;35.26;22.44
8894;BME280;4483;48.622;9.230;2023-06-24T12:16:15;98506.94;;;35.39;22.54
8894;BME280;4483;48.622;9.230;2023-06-24T12:18:42;98508.00;;;35.51;22.32
8894;BME280;4483;48.622;9.230;2023-06-24T12:21:08;98492.53;;;35.40;21.83
8894;BME280;4483;48.622;9.230;2023-06-24T12:23:35;98501.31;;;35.14;21.10
8894;BME280;4483;48.622;9.230;2023-06-24T12:26:02;98506.75;;;34.93;20.79
8894;BME280;4483;48.622;9.230;2023-06-24T12:28:28;98499.28;;;34.82;20.29
8894;BME280;4483;48.622;9.230;2023-06-24T12:30:56;98499.72;;;34.86;20.78
8894;BME280;4483;48.622;9.230;2023-06-24T12:33:23;98490.34;;;35.03;20.83
8894;BME280;4483;48.622;9.230;2023-06-24T12:35:50;98488.72;;;35.15;21.10
8894;BME280;4483;48.622;9.230;2023-06-24T12:38:16;98486.28;;;35.26;20.97
8894;BME280;4483;48.622;9.230;2023-06-24T12:40:43;98483.25;;;35.42;21.34
8894;BME280;4483;48.622;9.230;2023-06-24T12:43:10;98476.88;;;35.70;21.36
8894;BME280;4483;48.622;9.230;2023-06-24T12:45:38;98480.81;;;35.87;21.15
8894;BME280;4483;48.622;9.230;2023-06-24T12:48:06;98478.97;;;35.61;21.47
8894;BME280;4483;48.622;9.230;2023-06-24T12:50:33;98476.06;;;35.56;21.73
8894;BME280;4483;48.622;9.230;2023-06-24T12:52:59;98468.13;;;35.09;21.65
8894;BME280;4483;48.622;9.230;2023-06-24T12:55:27;98475.41;;;34.81;22.58
8894;BME280;4483;48.622;9.230;2023-06-24T12:57:53;98475.50;;;34.60;22.13
8894;BME280;4483;48.622;9.230;2023-06-24T13:00:20;98462.38;;;34.65;22.28
8894;BME280;4483;48.622;9.230;2023-06-24T13:02:48;98464.06;;;34.79;22.50
8894;BME280;4483;48.622;9.230;2023-06-24T13:05:16;98460.88;;;35.03;22.04
8894;BME280;4483;48.622;9.230;2023-06-24T13:07:43;98457.63;;;35.20;22.00
8894;BME280;4483;48.622;9.230;2023-06-24T13:10:10;98462.03;;;34.87;21.53
8894;BME280;4483;48.622;9.230;2023-06-24T13:12:37;98466.03;;;34.57;22.03
8894;BME280;4483;48.622;9.230;2023-06-24T13:15:06;98452.47;;;34.31;21.91
8894;BME280;4483;48.622;9.230;2023-06-24T13:17:34;98462.03;;;34.12;22.59
8894;BME280;4483;48.622;9.230;2023-06-24T13:20:01;98455.81;;;34.05;22.56
8894;BME280;4483;48.622;9.230;2023-06-24T13:22:31;98460.38;;;34.11;22.69
8894;BME280;4483;48.622;9.230;2023-06-24T13:24:57;98457.59;;;34.26;22.39
8894;BME280;4483;48.622;9.230;2023-06-24T13:27:24;98453.53;;;34.36;22.72